Delmont, New Jersey
Current Conditions -  °F | °C
As of 2:54 AM on Monday 26 Jan 2015 (Local Time) from KMIV Reporting Station
Overcast Overcast  
Wind Chill: 25°   Ceiling: 5000
Heat Index: 34°   Visibility: 10mi
Dew Point: 25°   Wind: 14mph
Humidity: 70%   Direction: 70°ENE
Pressure: 29.91"   Gusts: NA
Location:  39.21°N, 74.95°W
Report Text: KMIV 260754Z AUTO 07012KT 10SM OVC050 01/M04 A2991 RMK AO2 SLP128 T00111039
Loading
Personal Weather Stations






























Interactive Weather Map New forecast layout! Learn more

10-Day Weather Forecast

Advertisements
Track Severe Weather on mobile